sensor_id;sensor_type;location;lat;lon;timestamp;P1;durP1;ratioP1;P2;durP2;ratioP2
12840;SDS011;6487;48.626;12.486;2023-02-19T00:01:56;3.40;;;3.10;;
12840;SDS011;6487;48.626;12.486;2023-02-19T00:04:25;4.37;;;3.97;;
12840;SDS011;6487;48.626;12.486;2023-02-19T00:06:53;3.70;;;3.40;;
12840;SDS011;6487;48.626;12.486;2023-02-19T00:09:22;3.27;;;2.97;;
12840;SDS011;6487;48.626;12.486;2023-02-19T00:11:50;3.70;;;3.40;;
12840;SDS011;6487;48.626;12.486;2023-02-19T00:14:19;3.70;;;3.40;;
12840;SDS011;6487;48.626;12.486;2023-02-19T00:16:48;3.37;;;3.07;;
12840;SDS011;6487;48.626;12.486;2023-02-19T00:19:19;4.17;;;3.13;;
12840;SDS011;6487;48.626;12.486;2023-02-19T00:21:49;3.33;;;3.03;;
12840;SDS011;6487;48.626;12.486;2023-02-19T00:24:19;3.37;;;3.07;;
12840;SDS011;6487;48.626;12.486;2023-02-19T00:26:48;3.97;;;3.20;;
12840;SDS011;6487;48.626;12.486;2023-02-19T00:29:17;3.70;;;3.40;;
12840;SDS011;6487;48.626;12.486;2023-02-19T00:31:47;3.30;;;3.10;;
12840;SDS011;6487;48.626;12.486;2023-02-19T00:34:15;3.60;;;3.30;;
12840;SDS011;6487;48.626;12.486;2023-02-19T00:36:45;3.77;;;3.47;;
12840;SDS011;6487;48.626;12.486;2023-02-19T00:39:14;3.70;;;3.30;;
12840;SDS011;6487;48.626;12.486;2023-02-19T00:41:44;3.43;;;3.13;;
12840;SDS011;6487;48.626;12.486;2023-02-19T00:44:12;3.70;;;3.40;;
12840;SDS011;6487;48.626;12.486;2023-02-19T00:46:42;3.70;;;3.40;;
12840;SDS011;6487;48.626;12.486;2023-02-19T00:49:13;3.67;;;3.37;;
12840;SDS011;6487;48.626;12.486;2023-02-19T00:51:46;3.70;;;3.40;;
12840;SDS011;6487;48.626;12.486;2023-02-19T00:54:16;3.50;;;3.30;;
12840;SDS011;6487;48.626;12.486;2023-02-19T00:56:45;3.60;;;3.30;;
12840;SDS011;6487;48.626;12.486;2023-02-19T00:59:14;3.80;;;3.37;;
12840;SDS011;6487;48.626;12.486;2023-02-19T01:01:42;3.73;;;3.37;;
12840;SDS011;6487;48.626;12.486;2023-02-19T01:04:11;4.03;;;3.33;;
12840;SDS011;6487;48.626;12.486;2023-02-19T01:06:43;3.30;;;3.00;;
12840;SDS011;6487;48.626;12.486;2023-02-19T01:09:11;3.53;;;3.20;;
12840;SDS011;6487;48.626;12.486;2023-02-19T01:11:39;3.23;;;3.03;;
12840;SDS011;6487;48.626;12.486;2023-02-19T01:14:08;3.43;;;3.13;;
12840;SDS011;6487;48.626;12.486;2023-02-19T01:16:37;3.43;;;3.13;;
12840;SDS011;6487;48.626;12.486;2023-02-19T01:19:05;4.57;;;3.80;;
12840;SDS011;6487;48.626;12.486;2023-02-19T01:21:34;3.73;;;3.43;;
12840;SDS011;6487;48.626;12.486;2023-02-19T01:24:04;3.50;;;3.20;;
12840;SDS011;6487;48.626;12.486;2023-02-19T01:26:32;3.87;;;3.47;;
12840;SDS011;6487;48.626;12.486;2023-02-19T01:29:01;3.67;;;3.37;;
12840;SDS011;6487;48.626;12.486;2023-02-19T01:31:30;3.30;;;3.00;;
12840;SDS011;6487;48.626;12.486;2023-02-19T01:33:59;3.30;;;3.00;;
12840;SDS011;6487;48.626;12.486;2023-02-19T01:36:31;3.47;;;3.17;;
12840;SDS011;6487;48.626;12.486;2023-02-19T01:39:02;3.23;;;2.97;;
12840;SDS011;6487;48.626;12.486;2023-02-19T01:41:34;3.60;;;3.30;;
12840;SDS011;6487;48.626;12.486;2023-02-19T01:44:05;3.70;;;3.40;;
12840;SDS011;6487;48.626;12.486;2023-02-19T01:47:13;3.83;;;3.27;;
12840;SDS011;6487;48.626;12.486;2023-02-19T01:49:44;5.03;;;3.37;;
12840;SDS011;6487;48.626;12.486;2023-02-19T01:52:17;3.63;;;3.33;;
12840;SDS011;6487;48.626;12.486;2023-02-19T01:54:53;2.83;;;2.57;;
12840;SDS011;6487;48.626;12.486;2023-02-19T01:57:24;3.30;;;3.00;;
12840;SDS011;6487;48.626;12.486;2023-02-19T01:59:56;3.30;;;3.00;;
12840;SDS011;6487;48.626;12.486;2023-02-19T02:02:30;3.10;;;2.90;;
12840;SDS011;6487;48.626;12.486;2023-02-19T02:04:59;3.43;;;3.13;;
12840;SDS011;6487;48.626;12.486;2023-02-19T02:07:28;3.40;;;3.10;;
12840;SDS011;6487;48.626;12.486;2023-02-19T02:10:15;4.67;;;3.30;;
12840;SDS011;6487;48.626;12.486;2023-02-19T02:12:47;4.00;;;3.43;;
12840;SDS011;6487;48.626;12.486;2023-02-19T02:15:18;3.00;;;2.80;;
12840;SDS011;6487;48.626;12.486;2023-02-19T02:17:49;3.47;;;3.17;;
12840;SDS011;6487;48.626;12.486;2023-02-19T02:20:26;3.40;;;3.10;;
12840;SDS011;6487;48.626;12.486;2023-02-19T02:23:13;3.30;;;3.00;;
12840;SDS011;6487;48.626;12.486;2023-02-19T02:25:56;4.83;;;3.20;;
12840;SDS011;6487;48.626;12.486;2023-02-19T02:28:39;3.60;;;3.30;;
12840;SDS011;6487;48.626;12.486;2023-02-19T02:31:34;3.47;;;2.80;;
12840;SDS011;6487;48.626;12.486;2023-02-19T02:34:09;3.90;;;3.53;;
12840;SDS011;6487;48.626;12.486;2023-02-19T02:36:43;3.47;;;3.17;;
12840;SDS011;6487;48.626;12.486;2023-02-19T02:39:16;4.77;;;3.67;;
12840;SDS011;6487;48.626;12.486;2023-02-19T02:41:49;3.50;;;3.00;;
12840;SDS011;6487;48.626;12.486;2023-02-19T02:44:36;4.30;;;3.57;;
12840;SDS011;6487;48.626;12.486;2023-02-19T02:47:09;4.40;;;3.20;;
12840;SDS011;6487;48.626;12.486;2023-02-19T02:49:57;4.10;;;3.53;;
12840;SDS011;6487;48.626;12.486;2023-02-19T02:52:32;3.33;;;3.13;;
12840;SDS011;6487;48.626;12.486;2023-02-19T02:55:22;4.57;;;3.27;;
12840;SDS011;6487;48.626;12.486;2023-02-19T02:57:52;3.60;;;3.30;;
12840;SDS011;6487;48.626;12.486;2023-02-19T03:00:21;3.57;;;3.27;;
12840;SDS011;6487;48.626;12.486;2023-02-19T03:02:52;3.40;;;3.10;;
12840;SDS011;6487;48.626;12.486;2023-02-19T03:05:22;3.20;;;3.00;;
12840;SDS011;6487;48.626;12.486;2023-02-19T03:08:11;3.57;;;3.27;;
12840;SDS011;6487;48.626;12.486;2023-02-19T03:10:44;3.33;;;3.07;;
12840;SDS011;6487;48.626;12.486;2023-02-19T03:13:19;2.77;;;2.57;;
12840;SDS011;6487;48.626;12.486;2023-02-19T03:16:14;2.80;;;2.60;;
12840;SDS011;6487;48.626;12.486;2023-02-19T03:19:01;2.90;;;2.60;;
12840;SDS011;6487;48.626;12.486;2023-02-19T03:21:48;3.00;;;2.53;;
12840;SDS011;6487;48.626;12.486;2023-02-19T03:24:21;3.90;;;2.50;;
12840;SDS011;6487;48.626;12.486;2023-02-19T03:27:11;4.70;;;2.50;;
12840;SDS011;6487;48.626;12.486;2023-02-19T03:29:43;2.40;;;2.20;;
12840;SDS011;6487;48.626;12.486;2023-02-19T03:32:14;2.60;;;2.40;;
12840;SDS011;6487;48.626;12.486;2023-02-19T03:34:53;2.30;;;2.10;;
12840;SDS011;6487;48.626;12.486;2023-02-19T03:37:24;3.10;;;2.47;;
12840;SDS011;6487;48.626;12.486;2023-02-19T03:39:56;4.67;;;2.77;;
12840;SDS011;6487;48.626;12.486;2023-02-19T03:42:29;2.43;;;2.23;;
12840;SDS011;6487;48.626;12.486;2023-02-19T03:45:09;2.97;;;2.10;;
12840;SDS011;6487;48.626;12.486;2023-02-19T03:48:02;2.20;;;2.00;;
12840;SDS011;6487;48.626;12.486;2023-02-19T03:50:49;2.87;;;2.33;;
12840;SDS011;6487;48.626;12.486;2023-02-19T03:53:30;2.00;;;1.83;;
12840;SDS011;6487;48.626;12.486;2023-02-19T03:56:05;3.33;;;2.57;;
12840;SDS011;6487;48.626;12.486;2023-02-19T03:58:39;2.70;;;2.50;;
12840;SDS011;6487;48.626;12.486;2023-02-19T04:01:19;3.23;;;2.40;;
12840;SDS011;6487;48.626;12.486;2023-02-19T04:03:53;3.57;;;2.30;;
12840;SDS011;6487;48.626;12.486;2023-02-19T04:06:25;2.83;;;2.33;;
12840;SDS011;6487;48.626;12.486;2023-02-19T04:08:57;2.17;;;1.97;;
12840;SDS011;6487;48.626;12.486;2023-02-19T04:11:29;2.30;;;2.10;;
12840;SDS011;6487;48.626;12.486;2023-02-19T04:14:00;2.80;;;2.33;;
12840;SDS011;6487;48.626;12.486;2023-02-19T04:16:34;2.33;;;2.13;;
12840;SDS011;6487;48.626;12.486;2023-02-19T04:19:09;4.47;;;2.53;;
12840;SDS011;6487;48.626;12.486;2023-02-19T04:21:42;2.73;;;2.33;;
12840;SDS011;6487;48.626;12.486;2023-02-19T04:24:12;2.83;;;2.60;;
12840;SDS011;6487;48.626;12.486;2023-02-19T04:26:45;3.03;;;2.37;;
12840;SDS011;6487;48.626;12.486;2023-02-19T04:29:14;2.20;;;2.00;;
12840;SDS011;6487;48.626;12.486;2023-02-19T04:31:42;2.47;;;2.27;;
12840;SDS011;6487;48.626;12.486;2023-02-19T04:34:10;3.50;;;2.37;;
12840;SDS011;6487;48.626;12.486;2023-02-19T04:36:39;2.67;;;2.43;;
12840;SDS011;6487;48.626;12.486;2023-02-19T04:39:08;2.97;;;2.23;;
12840;SDS011;6487;48.626;12.486;2023-02-19T04:41:36;2.20;;;2.00;;
12840;SDS011;6487;48.626;12.486;2023-02-19T04:44:05;2.50;;;2.00;;
12840;SDS011;6487;48.626;12.486;2023-02-19T04:46:33;2.37;;;2.10;;
12840;SDS011;6487;48.626;12.486;2023-02-19T04:49:01;2.30;;;1.93;;
12840;SDS011;6487;48.626;12.486;2023-02-19T04:51:30;5.13;;;2.20;;
12840;SDS011;6487;48.626;12.486;2023-02-19T04:53:58;2.83;;;2.13;;
12840;SDS011;6487;48.626;12.486;2023-02-19T04:56:28;2.40;;;2.20;;
12840;SDS011;6487;48.626;12.486;2023-02-19T04:58:56;2.33;;;2.00;;
12840;SDS011;6487;48.626;12.486;2023-02-19T05:01:24;2.50;;;2.30;;
12840;SDS011;6487;48.626;12.486;2023-02-19T05:03:53;2.30;;;2.10;;
12840;SDS011;6487;48.626;12.486;2023-02-19T05:06:21;3.20;;;2.23;;
12840;SDS011;6487;48.626;12.486;2023-02-19T05:08:49;4.43;;;2.33;;
12840;SDS011;6487;48.626;12.486;2023-02-19T05:11:18;2.17;;;1.97;;
12840;SDS011;6487;48.626;12.486;2023-02-19T05:13:50;2.50;;;2.30;;
12840;SDS011;6487;48.626;12.486;2023-02-19T05:16:18;2.97;;;2.30;;
12840;SDS011;6487;48.626;12.486;2023-02-19T05:18:46;3.30;;;2.20;;
12840;SDS011;6487;48.626;12.486;2023-02-19T05:21:15;2.40;;;2.20;;
12840;SDS011;6487;48.626;12.486;2023-02-19T05:23:43;2.50;;;2.30;;
12840;SDS011;6487;48.626;12.486;2023-02-19T05:26:12;3.00;;;2.40;;
12840;SDS011;6487;48.626;12.486;2023-02-19T05:28:43;3.77;;;2.43;;
12840;SDS011;6487;48.626;12.486;2023-02-19T05:31:13;2.43;;;2.23;;
12840;SDS011;6487;48.626;12.486;2023-02-19T05:33:42;2.53;;;2.33;;
12840;SDS011;6487;48.626;12.486;2023-02-19T05:36:16;2.23;;;2.00;;
12840;SDS011;6487;48.626;12.486;2023-02-19T05:38:45;2.30;;;2.10;;
12840;SDS011;6487;48.626;12.486;2023-02-19T05:41:16;2.83;;;2.63;;
12840;SDS011;6487;48.626;12.486;2023-02-19T05:43:47;2.53;;;2.33;;
12840;SDS011;6487;48.626;12.486;2023-02-19T05:46:18;2.40;;;2.20;;
12840;SDS011;6487;48.626;12.486;2023-02-19T05:48:48;2.70;;;2.50;;
12840;SDS011;6487;48.626;12.486;2023-02-19T05:51:19;2.53;;;2.33;;
12840;SDS011;6487;48.626;12.486;2023-02-19T05:53:50;3.00;;;2.77;;
12840;SDS011;6487;48.626;12.486;2023-02-19T05:59:09;2.70;;;2.30;;
12840;SDS011;6487;48.626;12.486;2023-02-19T06:01:44;3.33;;;2.73;;
12840;SDS011;6487;48.626;12.486;2023-02-19T06:04:13;2.90;;;2.70;;
12840;SDS011;6487;48.626;12.486;2023-02-19T06:06:42;3.67;;;2.63;;
12840;SDS011;6487;48.626;12.486;2023-02-19T06:09:10;2.60;;;2.40;;
12840;SDS011;6487;48.626;12.486;2023-02-19T06:11:39;2.40;;;2.20;;
12840;SDS011;6487;48.626;12.486;2023-02-19T06:14:09;2.67;;;2.47;;
12840;SDS011;6487;48.626;12.486;2023-02-19T06:16:39;2.70;;;2.50;;
12840;SDS011;6487;48.626;12.486;2023-02-19T06:19:10;4.60;;;2.97;;
12840;SDS011;6487;48.626;12.486;2023-02-19T06:21:38;2.47;;;2.27;;
12840;SDS011;6487;48.626;12.486;2023-02-19T06:24:07;3.13;;;2.87;;
12840;SDS011;6487;48.626;12.486;2023-02-19T06:26:36;9.67;;;8.57;;
12840;SDS011;6487;48.626;12.486;2023-02-19T06:29:05;4.00;;;3.70;;
12840;SDS011;6487;48.626;12.486;2023-02-19T06:31:33;3.10;;;2.80;;
12840;SDS011;6487;48.626;12.486;2023-02-19T06:34:02;2.70;;;2.40;;
12840;SDS011;6487;48.626;12.486;2023-02-19T06:36:32;2.93;;;2.50;;
12840;SDS011;6487;48.626;12.486;2023-02-19T06:39:01;3.00;;;2.57;;
12840;SDS011;6487;48.626;12.486;2023-02-19T06:41:31;2.87;;;2.67;;
12840;SDS011;6487;48.626;12.486;2023-02-19T06:43:59;3.30;;;2.80;;
12840;SDS011;6487;48.626;12.486;2023-02-19T06:46:28;3.00;;;2.73;;
12840;SDS011;6487;48.626;12.486;2023-02-19T06:48:56;2.90;;;2.70;;
12840;SDS011;6487;48.626;12.486;2023-02-19T06:51:24;2.90;;;2.70;;
12840;SDS011;6487;48.626;12.486;2023-02-19T06:53:56;3.13;;;2.83;;
12840;SDS011;6487;48.626;12.486;2023-02-19T06:56:25;2.77;;;2.57;;
12840;SDS011;6487;48.626;12.486;2023-02-19T06:58:56;2.70;;;2.50;;
12840;SDS011;6487;48.626;12.486;2023-02-19T07:01:26;2.90;;;2.70;;
12840;SDS011;6487;48.626;12.486;2023-02-19T07:03:55;2.87;;;2.60;;
12840;SDS011;6487;48.626;12.486;2023-02-19T07:06:24;2.67;;;2.40;;
12840;SDS011;6487;48.626;12.486;2023-02-19T07:08:54;2.50;;;2.13;;
12840;SDS011;6487;48.626;12.486;2023-02-19T07:11:25;2.20;;;2.07;;
12840;SDS011;6487;48.626;12.486;2023-02-19T07:13:57;2.40;;;2.20;;
12840;SDS011;6487;48.626;12.486;2023-02-19T07:16:27;2.37;;;1.93;;
12840;SDS011;6487;48.626;12.486;2023-02-19T07:18:56;1.97;;;1.80;;
12840;SDS011;6487;48.626;12.486;2023-02-19T07:21:25;2.47;;;1.93;;
12840;SDS011;6487;48.626;12.486;2023-02-19T07:23:56;2.10;;;1.90;;
12840;SDS011;6487;48.626;12.486;2023-02-19T07:26:25;3.53;;;2.07;;
12840;SDS011;6487;48.626;12.486;2023-02-19T07:28:53;2.20;;;2.00;;
12840;SDS011;6487;48.626;12.486;2023-02-19T07:31:22;1.67;;;1.57;;
12840;SDS011;6487;48.626;12.486;2023-02-19T07:33:51;1.90;;;1.80;;
12840;SDS011;6487;48.626;12.486;2023-02-19T07:36:19;1.70;;;1.60;;
12840;SDS011;6487;48.626;12.486;2023-02-19T07:38:53;3.00;;;1.60;;
12840;SDS011;6487;48.626;12.486;2023-02-19T07:41:24;2.20;;;1.20;;
12840;SDS011;6487;48.626;12.486;2023-02-19T07:43:53;1.90;;;1.20;;
12840;SDS011;6487;48.626;12.486;2023-02-19T07:46:22;0.77;;;0.77;;
12840;SDS011;6487;48.626;12.486;2023-02-19T07:48:51;1.03;;;0.77;;
12840;SDS011;6487;48.626;12.486;2023-02-19T07:51:19;0.60;;;0.60;;
12840;SDS011;6487;48.626;12.486;2023-02-19T07:53:48;0.63;;;0.50;;
12840;SDS011;6487;48.626;12.486;2023-02-19T07:56:16;0.63;;;0.53;;
12840;SDS011;6487;48.626;12.486;2023-02-19T07:58:47;0.60;;;0.47;;
12840;SDS011;6487;48.626;12.486;2023-02-19T08:01:16;0.70;;;0.70;;
12840;SDS011;6487;48.626;12.486;2023-02-19T08:04:06;1.10;;;0.60;;
12840;SDS011;6487;48.626;12.486;2023-02-19T08:06:33;0.87;;;0.60;;
12840;SDS011;6487;48.626;12.486;2023-02-19T08:09:02;0.50;;;0.50;;
12840;SDS011;6487;48.626;12.486;2023-02-19T08:11:31;0.53;;;0.53;;
12840;SDS011;6487;48.626;12.486;2023-02-19T08:14:18;0.80;;;0.60;;
12840;SDS011;6487;48.626;12.486;2023-02-19T08:16:50;0.53;;;0.53;;
12840;SDS011;6487;48.626;12.486;2023-02-19T08:19:19;0.43;;;0.43;;
12840;SDS011;6487;48.626;12.486;2023-02-19T08:21:48;1.23;;;0.60;;
12840;SDS011;6487;48.626;12.486;2023-02-19T08:24:16;0.50;;;0.40;;
12840;SDS011;6487;48.626;12.486;2023-02-19T08:26:45;0.87;;;0.43;;
12840;SDS011;6487;48.626;12.486;2023-02-19T08:29:13;1.03;;;0.50;;
12840;SDS011;6487;48.626;12.486;2023-02-19T08:31:43;0.70;;;0.50;;
12840;SDS011;6487;48.626;12.486;2023-02-19T08:34:11;0.40;;;0.40;;
12840;SDS011;6487;48.626;12.486;2023-02-19T08:36:39;0.57;;;0.57;;
12840;SDS011;6487;48.626;12.486;2023-02-19T08:39:09;0.40;;;0.33;;
12840;SDS011;6487;48.626;12.486;2023-02-19T08:41:37;0.40;;;0.37;;
12840;SDS011;6487;48.626;12.486;2023-02-19T08:44:05;0.63;;;0.40;;
12840;SDS011;6487;48.626;12.486;2023-02-19T08:46:34;0.63;;;0.40;;
12840;SDS011;6487;48.626;12.486;2023-02-19T08:49:03;0.47;;;0.40;;
12840;SDS011;6487;48.626;12.486;2023-02-19T08:51:32;0.70;;;0.50;;
12840;SDS011;6487;48.626;12.486;2023-02-19T08:54:00;0.50;;;0.40;;
12840;SDS011;6487;48.626;12.486;2023-02-19T08:56:29;1.97;;;0.40;;
12840;SDS011;6487;48.626;12.486;2023-02-19T08:58:58;3.97;;;3.40;;
12840;SDS011;6487;48.626;12.486;2023-02-19T09:01:26;2.17;;;1.00;;
12840;SDS011;6487;48.626;12.486;2023-02-19T09:03:54;0.60;;;0.50;;
12840;SDS011;6487;48.626;12.486;2023-02-19T09:06:24;0.40;;;0.40;;
12840;SDS011;6487;48.626;12.486;2023-02-19T09:08:52;0.40;;;0.40;;
12840;SDS011;6487;48.626;12.486;2023-02-19T09:11:20;0.73;;;0.43;;
12840;SDS011;6487;48.626;12.486;2023-02-19T09:13:49;0.50;;;0.50;;
12840;SDS011;6487;48.626;12.486;2023-02-19T09:16:17;0.43;;;0.40;;
12840;SDS011;6487;48.626;12.486;2023-02-19T09:18:45;0.43;;;0.43;;
12840;SDS011;6487;48.626;12.486;2023-02-19T09:21:13;0.50;;;0.50;;
12840;SDS011;6487;48.626;12.486;2023-02-19T09:23:43;0.37;;;0.30;;
12840;SDS011;6487;48.626;12.486;2023-02-19T09:26:11;0.30;;;0.30;;
12840;SDS011;6487;48.626;12.486;2023-02-19T09:28:40;0.50;;;0.50;;
12840;SDS011;6487;48.626;12.486;2023-02-19T09:31:08;0.90;;;0.57;;
12840;SDS011;6487;48.626;12.486;2023-02-19T09:33:42;0.30;;;0.30;;
12840;SDS011;6487;48.626;12.486;2023-02-19T09:36:12;0.60;;;0.43;;
12840;SDS011;6487;48.626;12.486;2023-02-19T09:38:43;0.40;;;0.40;;
12840;SDS011;6487;48.626;12.486;2023-02-19T09:41:14;0.30;;;0.30;;
12840;SDS011;6487;48.626;12.486;2023-02-19T09:43:50;0.70;;;0.47;;
12840;SDS011;6487;48.626;12.486;2023-02-19T09:46:21;0.40;;;0.40;;
12840;SDS011;6487;48.626;12.486;2023-02-19T09:48:56;0.40;;;0.30;;
12840;SDS011;6487;48.626;12.486;2023-02-19T09:51:32;0.70;;;0.70;;
12840;SDS011;6487;48.626;12.486;2023-02-19T09:54:05;0.60;;;0.60;;
12840;SDS011;6487;48.626;12.486;2023-02-19T09:56:39;2.10;;;0.50;;
12840;SDS011;6487;48.626;12.486;2023-02-19T09:59:08;1.70;;;0.60;;
12840;SDS011;6487;48.626;12.486;2023-02-19T10:01:47;0.40;;;0.40;;
12840;SDS011;6487;48.626;12.486;2023-02-19T10:04:21;0.60;;;0.60;;
12840;SDS011;6487;48.626;12.486;2023-02-19T10:06:49;1.43;;;0.63;;
12840;SDS011;6487;48.626;12.486;2023-02-19T10:09:22;1.20;;;1.10;;
12840;SDS011;6487;48.626;12.486;2023-02-19T10:11:54;1.10;;;1.00;;
12840;SDS011;6487;48.626;12.486;2023-02-19T10:14:27;1.67;;;1.40;;
12840;SDS011;6487;48.626;12.486;2023-02-19T10:17:03;1.17;;;0.60;;
12840;SDS011;6487;48.626;12.486;2023-02-19T10:19:32;0.60;;;0.60;;
12840;SDS011;6487;48.626;12.486;2023-02-19T10:22:02;0.67;;;0.50;;
12840;SDS011;6487;48.626;12.486;2023-02-19T10:24:32;0.67;;;0.60;;
12840;SDS011;6487;48.626;12.486;2023-02-19T10:27:04;1.17;;;0.90;;
12840;SDS011;6487;48.626;12.486;2023-02-19T10:29:37;1.07;;;0.60;;
12840;SDS011;6487;48.626;12.486;2023-02-19T10:32:13;0.50;;;0.50;;
12840;SDS011;6487;48.626;12.486;2023-02-19T10:34:46;0.80;;;0.70;;
12840;SDS011;6487;48.626;12.486;2023-02-19T10:37:15;0.60;;;0.50;;
12840;SDS011;6487;48.626;12.486;2023-02-19T10:39:47;0.90;;;0.80;;
12840;SDS011;6487;48.626;12.486;2023-02-19T10:42:17;1.00;;;0.90;;
12840;SDS011;6487;48.626;12.486;2023-02-19T10:44:49;0.83;;;0.70;;
12840;SDS011;6487;48.626;12.486;2023-02-19T10:47:24;0.67;;;0.67;;
12840;SDS011;6487;48.626;12.486;2023-02-19T10:49:55;1.00;;;0.70;;
12840;SDS011;6487;48.626;12.486;2023-02-19T10:52:29;1.43;;;1.00;;
12840;SDS011;6487;48.626;12.486;2023-02-19T10:55:14;1.23;;;0.90;;
12840;SDS011;6487;48.626;12.486;2023-02-19T10:57:50;1.57;;;0.87;;
12840;SDS011;6487;48.626;12.486;2023-02-19T11:00:20;1.10;;;0.90;;
12840;SDS011;6487;48.626;12.486;2023-02-19T11:03:17;1.13;;;0.80;;
12840;SDS011;6487;48.626;12.486;2023-02-19T11:05:52;1.67;;;0.80;;
12840;SDS011;6487;48.626;12.486;2023-02-19T11:08:26;1.00;;;0.90;;
12840;SDS011;6487;48.626;12.486;2023-02-19T11:10:57;1.13;;;0.87;;
12840;SDS011;6487;48.626;12.486;2023-02-19T11:13:26;1.57;;;1.47;;
12840;SDS011;6487;48.626;12.486;2023-02-19T11:15:58;2.97;;;2.40;;
12840;SDS011;6487;48.626;12.486;2023-02-19T11:18:27;2.53;;;2.33;;
12840;SDS011;6487;48.626;12.486;2023-02-19T11:20:58;1.40;;;1.30;;
12840;SDS011;6487;48.626;12.486;2023-02-19T11:23:29;1.97;;;1.20;;
12840;SDS011;6487;48.626;12.486;2023-02-19T11:26:03;1.10;;;0.90;;
12840;SDS011;6487;48.626;12.486;2023-02-19T11:28:34;1.57;;;0.83;;
12840;SDS011;6487;48.626;12.486;2023-02-19T11:31:11;0.53;;;0.53;;
12840;SDS011;6487;48.626;12.486;2023-02-19T11:33:50;1.43;;;0.80;;
12840;SDS011;6487;48.626;12.486;2023-02-19T11:36:24;4.87;;;3.10;;
12840;SDS011;6487;48.626;12.486;2023-02-19T11:39:02;6.43;;;3.27;;
12840;SDS011;6487;48.626;12.486;2023-02-19T11:42:01;7.80;;;5.07;;
12840;SDS011;6487;48.626;12.486;2023-02-19T11:44:44;4.33;;;3.87;;
12840;SDS011;6487;48.626;12.486;2023-02-19T11:47:40;4.90;;;3.47;;
12840;SDS011;6487;48.626;12.486;2023-02-19T11:50:32;2.27;;;1.90;;
12840;SDS011;6487;48.626;12.486;2023-02-19T11:53:26;3.97;;;2.53;;
12840;SDS011;6487;48.626;12.486;2023-02-19T11:56:01;4.17;;;2.90;;
12840;SDS011;6487;48.626;12.486;2023-02-19T12:01:42;3.97;;;2.80;;
12840;SDS011;6487;48.626;12.486;2023-02-19T12:04:52;5.33;;;3.23;;
12840;SDS011;6487;48.626;12.486;2023-02-19T12:07:52;3.33;;;2.13;;
12840;SDS011;6487;48.626;12.486;2023-02-19T12:11:10;3.87;;;3.00;;
12840;SDS011;6487;48.626;12.486;2023-02-19T12:14:07;7.97;;;5.53;;
12840;SDS011;6487;48.626;12.486;2023-02-19T12:17:10;4.53;;;3.63;;
12840;SDS011;6487;48.626;12.486;2023-02-19T12:19:56;4.33;;;2.20;;
12840;SDS011;6487;48.626;12.486;2023-02-19T12:22:35;1.73;;;1.53;;
12840;SDS011;6487;48.626;12.486;2023-02-19T12:25:28;1.37;;;1.00;;
12840;SDS011;6487;48.626;12.486;2023-02-19T12:31:28;1.70;;;0.80;;
12840;SDS011;6487;48.626;12.486;2023-02-19T12:34:27;1.10;;;0.80;;
12840;SDS011;6487;48.626;12.486;2023-02-19T12:37:19;0.90;;;0.80;;
12840;SDS011;6487;48.626;12.486;2023-02-19T12:40:07;2.30;;;1.03;;
12840;SDS011;6487;48.626;12.486;2023-02-19T12:42:56;3.23;;;1.20;;
12840;SDS011;6487;48.626;12.486;2023-02-19T12:45:36;1.40;;;0.93;;
12840;SDS011;6487;48.626;12.486;2023-02-19T12:48:14;1.50;;;1.03;;
12840;SDS011;6487;48.626;12.486;2023-02-19T12:50:52;1.40;;;1.00;;
12840;SDS011;6487;48.626;12.486;2023-02-19T12:53:31;1.13;;;1.00;;
12840;SDS011;6487;48.626;12.486;2023-02-19T12:56:09;1.67;;;1.30;;
12840;SDS011;6487;48.626;12.486;2023-02-19T12:58:44;1.20;;;1.10;;
12840;SDS011;6487;48.626;12.486;2023-02-19T13:01:17;1.23;;;1.00;;
12840;SDS011;6487;48.626;12.486;2023-02-19T13:03:52;2.03;;;1.10;;
12840;SDS011;6487;48.626;12.486;2023-02-19T13:06:39;1.50;;;0.90;;
12840;SDS011;6487;48.626;12.486;2023-02-19T13:09:12;3.00;;;1.10;;
12840;SDS011;6487;48.626;12.486;2023-02-19T13:11:47;1.77;;;1.00;;
12840;SDS011;6487;48.626;12.486;2023-02-19T13:14:22;1.40;;;0.80;;
12840;SDS011;6487;48.626;12.486;2023-02-19T13:16:56;2.13;;;1.37;;
12840;SDS011;6487;48.626;12.486;2023-02-19T13:19:29;1.83;;;1.20;;
12840;SDS011;6487;48.626;12.486;2023-02-19T13:22:00;2.33;;;1.60;;
12840;SDS011;6487;48.626;12.486;2023-02-19T13:25:00;1.97;;;1.00;;
12840;SDS011;6487;48.626;12.486;2023-02-19T13:27:35;3.13;;;1.30;;
12840;SDS011;6487;48.626;12.486;2023-02-19T13:30:31;1.50;;;1.20;;
12840;SDS011;6487;48.626;12.486;2023-02-19T13:33:14;1.90;;;1.60;;
12840;SDS011;6487;48.626;12.486;2023-02-19T13:36:05;2.90;;;1.67;;
12840;SDS011;6487;48.626;12.486;2023-02-19T13:38:39;1.37;;;1.10;;
12840;SDS011;6487;48.626;12.486;2023-02-19T13:41:20;1.77;;;0.90;;
12840;SDS011;6487;48.626;12.486;2023-02-19T13:43:56;1.03;;;0.90;;
12840;SDS011;6487;48.626;12.486;2023-02-19T13:46:35;3.87;;;1.10;;
12840;SDS011;6487;48.626;12.486;2023-02-19T14:04:54;2.00;;;1.03;;
12840;SDS011;6487;48.626;12.486;2023-02-19T14:25:45;2.07;;;1.23;;
12840;SDS011;6487;48.626;12.486;2023-02-19T14:28:20;2.83;;;1.00;;
12840;SDS011;6487;48.626;12.486;2023-02-19T14:30:55;1.97;;;0.90;;
12840;SDS011;6487;48.626;12.486;2023-02-19T14:33:27;0.83;;;0.70;;
12840;SDS011;6487;48.626;12.486;2023-02-19T14:35:59;2.20;;;0.87;;
12840;SDS011;6487;48.626;12.486;2023-02-19T14:38:36;1.43;;;0.90;;
12840;SDS011;6487;48.626;12.486;2023-02-19T14:41:12;1.90;;;1.27;;
12840;SDS011;6487;48.626;12.486;2023-02-19T14:43:43;1.53;;;1.17;;
12840;SDS011;6487;48.626;12.486;2023-02-19T14:46:15;1.67;;;1.00;;
12840;SDS011;6487;48.626;12.486;2023-02-19T14:48:51;1.87;;;1.00;;
12840;SDS011;6487;48.626;12.486;2023-02-19T14:51:22;1.10;;;1.00;;
12840;SDS011;6487;48.626;12.486;2023-02-19T14:53:58;3.80;;;0.90;;
12840;SDS011;6487;48.626;12.486;2023-02-19T14:56:41;1.83;;;1.10;;
12840;SDS011;6487;48.626;12.486;2023-02-19T14:59:20;3.03;;;1.00;;
12840;SDS011;6487;48.626;12.486;2023-02-19T15:01:52;0.93;;;0.87;;
12840;SDS011;6487;48.626;12.486;2023-02-19T15:04:23;1.77;;;1.10;;
12840;SDS011;6487;48.626;12.486;2023-02-19T15:06:54;0.70;;;0.70;;
12840;SDS011;6487;48.626;12.486;2023-02-19T15:09:27;0.93;;;0.93;;
12840;SDS011;6487;48.626;12.486;2023-02-19T15:11:59;4.50;;;3.83;;
12840;SDS011;6487;48.626;12.486;2023-02-19T15:14:29;2.40;;;1.83;;
12840;SDS011;6487;48.626;12.486;2023-02-19T15:16:59;3.43;;;1.20;;
12840;SDS011;6487;48.626;12.486;2023-02-19T15:19:30;1.83;;;1.27;;
12840;SDS011;6487;48.626;12.486;2023-02-19T15:22:01;1.23;;;0.90;;
12840;SDS011;6487;48.626;12.486;2023-02-19T15:24:31;3.00;;;1.27;;
12840;SDS011;6487;48.626;12.486;2023-02-19T15:26:59;3.17;;;1.10;;
12840;SDS011;6487;48.626;12.486;2023-02-19T15:29:28;1.23;;;1.00;;
12840;SDS011;6487;48.626;12.486;2023-02-19T15:31:57;1.63;;;1.10;;
12840;SDS011;6487;48.626;12.486;2023-02-19T15:34:28;2.37;;;0.90;;
12840;SDS011;6487;48.626;12.486;2023-02-19T15:36:59;2.30;;;1.50;;
12840;SDS011;6487;48.626;12.486;2023-02-19T15:39:33;1.40;;;1.30;;
12840;SDS011;6487;48.626;12.486;2023-02-19T15:42:05;1.50;;;1.10;;
12840;SDS011;6487;48.626;12.486;2023-02-19T15:44:39;2.20;;;1.03;;
12840;SDS011;6487;48.626;12.486;2023-02-19T15:47:17;2.10;;;1.03;;
12840;SDS011;6487;48.626;12.486;2023-02-19T15:49:54;2.77;;;1.10;;
12840;SDS011;6487;48.626;12.486;2023-02-19T15:52:31;2.80;;;1.40;;
12840;SDS011;6487;48.626;12.486;2023-02-19T15:55:12;3.30;;;1.10;;
12840;SDS011;6487;48.626;12.486;2023-02-19T15:57:57;2.50;;;1.20;;
12840;SDS011;6487;48.626;12.486;2023-02-19T16:00:35;1.53;;;0.97;;
12840;SDS011;6487;48.626;12.486;2023-02-19T16:03:12;2.20;;;1.10;;
12840;SDS011;6487;48.626;12.486;2023-02-19T16:05:46;1.80;;;1.13;;
12840;SDS011;6487;48.626;12.486;2023-02-19T16:08:27;1.83;;;1.30;;
12840;SDS011;6487;48.626;12.486;2023-02-19T16:11:00;3.83;;;3.03;;